Aviation Digital Data Service (ADDS)

Output produced by METARs form (1649 UTC 23 January 2019)
found at http://www.aviationweather.gov/metar/data/
 
Forecast for: DIBK (BOUAKE (CIV/MIL), CI)
Text: TAF DIBK 231100Z 2312/2412 30004KT 9999 FEW013
Forecast period: 1200 UTC 23 January 2019 to 1200 UTC 24 January 2019
Forecast type: FROM: standard forecast or significant change
Winds: from the WNW (300 degrees) at 5 MPH (4 knots; 2.1 m/s)
Visibility: 6 or more miles 10+ km)
Ceiling: at least 12,000 feet AGL
Clouds: few clouds at 1300 feet AGL
Weather: no significant weather forecast for this period
Text: TEMPO 2313/2318 4000 HZ NSC
Forecast period: 1300 to 1800 UTC 23 January 2019
Forecast type: TEMPORARY: The following changes expected for less than half the time period
Visibility: 2.49 miles (4.01 km)
Ceiling: unknown
Clouds: missing
Weather: HZ  (haze)